createdAt,value
2022-07-29T00:02:23.815Z,16.13
2022-07-29T00:07:25.437Z,16.20
2022-07-29T00:12:27.096Z,16.29
2022-07-29T00:17:34.409Z,16.28
2022-07-29T00:22:37.763Z,16.24
2022-07-29T00:27:39.816Z,16.15
2022-07-29T00:32:41.369Z,16.08
2022-07-29T00:38:00.246Z,16.04
2022-07-29T00:43:17.893Z,15.99
2022-07-29T00:48:19.561Z,15.94
2022-07-29T00:53:21.833Z,15.90
2022-07-29T00:58:24.519Z,15.87
2022-07-29T01:03:26.011Z,15.81
2022-07-29T01:08:33.314Z,15.74
2022-07-29T01:13:34.784Z,15.70
2022-07-29T01:18:42.532Z,15.67
2022-07-29T01:24:02.811Z,15.62
2022-07-29T01:29:13.415Z,15.56
2022-07-29T01:34:35.666Z,15.55
2022-07-29T01:39:40.185Z,15.55
2022-07-29T01:45:20.477Z,15.54
2022-07-29T01:50:27.358Z,15.53
2022-07-29T01:55:32.715Z,15.50
2022-07-29T02:00:35.510Z,15.45
2022-07-29T02:05:54.130Z,15.44
2022-07-29T02:11:09.172Z,15.43
2022-07-29T02:16:12.369Z,15.45
2022-07-29T02:21:18.661Z,15.51
2022-07-29T02:26:23.404Z,15.57
2022-07-29T02:31:30.726Z,15.62
2022-07-29T02:36:32.862Z,15.69
2022-07-29T02:41:42.732Z,15.72
2022-07-29T02:46:48.872Z,15.73
2022-07-29T02:51:55.522Z,15.76
2022-07-29T02:57:01.191Z,15.76
2022-07-29T03:02:05.638Z,15.82
2022-07-29T03:07:07.605Z,15.91
2022-07-29T03:12:09.592Z,16.04
2022-07-29T03:17:11.978Z,16.18
2022-07-29T03:22:14.911Z,16.28
2022-07-29T03:27:16.619Z,16.35
2022-07-29T03:32:22.390Z,16.37
2022-07-29T03:37:25.661Z,16.42
2022-07-29T03:42:34.157Z,16.50
2022-07-29T03:47:50.307Z,16.61
2022-07-29T03:52:53.000Z,16.79
2022-07-29T03:58:15.226Z,17.04
2022-07-29T04:03:21.120Z,17.79
2022-07-29T04:08:22.458Z,18.58
2022-07-29T04:13:23.830Z,19.02
2022-07-29T04:18:25.733Z,19.09
2022-07-29T04:23:29.742Z,19.30
2022-07-29T04:28:31.096Z,18.95
2022-07-29T04:33:32.671Z,18.45
2022-07-29T04:38:33.914Z,18.06
2022-07-29T04:43:36.763Z,18.05
2022-07-29T04:48:38.434Z,18.79
2022-07-29T04:53:39.981Z,20.09
2022-07-29T04:58:41.438Z,21.15
2022-07-29T05:03:45.614Z,22.07
2022-07-29T05:09:07.229Z,22.75
2022-07-29T05:14:21.549Z,23.16
2022-07-29T05:19:23.801Z,23.61
2022-07-29T05:24:25.131Z,24.08
2022-07-29T05:29:44.539Z,24.17
2022-07-29T05:34:50.722Z,23.94
2022-07-29T05:39:56.943Z,23.49
2022-07-29T05:45:03.359Z,23.12
2022-07-29T05:50:05.277Z,23.08
2022-07-29T05:55:08.993Z,23.51
2022-07-29T06:00:14.883Z,24.43
2022-07-29T06:05:36.110Z,24.41
2022-07-29T06:10:44.387Z,23.86
2022-07-29T06:15:46.215Z,23.77
2022-07-29T06:20:48.041Z,24.67
2022-07-29T06:25:49.409Z,25.22
2022-07-29T06:30:50.845Z,25.57
2022-07-29T06:35:55.114Z,25.70
2022-07-29T06:41:02.717Z,25.19
2022-07-29T06:46:06.946Z,24.68
2022-07-29T06:51:29.148Z,24.65
2022-07-29T06:56:43.956Z,24.63
2022-07-29T07:01:45.608Z,24.73
2022-07-29T07:06:47.059Z,25.00
2022-07-29T07:11:49.635Z,25.24
2022-07-29T07:16:52.683Z,25.55
2022-07-29T07:21:56.168Z,25.88
2022-07-29T07:26:57.734Z,26.47
2022-07-29T07:32:03.429Z,27.11
2022-07-29T07:37:05.583Z,27.75
2022-07-29T07:42:06.921Z,28.04
2022-07-29T07:47:08.775Z,28.40
2022-07-29T07:52:14.568Z,28.27
2022-07-29T07:57:16.854Z,28.18
2022-07-29T08:02:18.565Z,28.10
2022-07-29T08:07:20.099Z,28.04
2022-07-29T08:12:21.569Z,28.17
2022-07-29T08:17:22.855Z,28.03
2022-07-29T08:22:24.328Z,28.14
2022-07-29T08:27:47.789Z,28.84
2022-07-29T08:32:54.220Z,29.45
2022-07-29T08:37:57.267Z,29.60
2022-07-29T08:42:58.980Z,29.58
2022-07-29T08:48:00.822Z,29.65
2022-07-29T08:53:03.572Z,29.63
2022-07-29T08:58:21.603Z,29.83
2022-07-29T09:03:29.943Z,30.50
2022-07-29T09:08:33.016Z,30.80
2022-07-29T09:13:43.489Z,30.16
2022-07-29T09:18:47.111Z,30.12
2022-07-29T09:24:17.971Z,30.24
2022-07-29T09:29:22.677Z,29.99
2022-07-29T09:34:30.344Z,29.74
2022-07-29T09:39:37.114Z,29.59
2022-07-29T09:44:48.629Z,29.51
2022-07-29T09:49:52.760Z,29.97
2022-07-29T09:55:06.773Z,30.25
2022-07-29T10:00:18.226Z,30.88
2022-07-29T10:05:25.365Z,31.11
2022-07-29T10:10:29.263Z,31.30
2022-07-29T10:15:33.356Z,31.90
2022-07-29T10:20:37.086Z,32.22
2022-07-29T10:25:38.415Z,32.60
2022-07-29T10:30:41.249Z,33.20
2022-07-29T10:36:02.545Z,33.37
2022-07-29T10:41:25.486Z,33.33
2022-07-29T10:46:28.537Z,32.80
2022-07-29T10:51:56.534Z,32.53
2022-07-29T10:57:25.646Z,32.28
2022-07-29T11:02:41.558Z,31.74
2022-07-29T11:08:30.151Z,31.35
2022-07-29T11:13:44.513Z,31.37
2022-07-29T11:19:13.542Z,31.37
2022-07-29T11:24:30.082Z,31.81
2022-07-29T11:29:33.458Z,32.67
2022-07-29T11:34:42.404Z,32.98
2022-07-29T11:39:53.292Z,32.59
2022-07-29T11:44:58.755Z,32.15
2022-07-29T11:50:10.290Z,31.90
2022-07-29T11:55:15.294Z,31.80
2022-07-29T12:00:38.386Z,30.85
2022-07-29T12:05:48.297Z,30.33
2022-07-29T12:10:53.507Z,29.85
2022-07-29T12:16:15.296Z,29.66
2022-07-29T12:21:25.787Z,29.80
2022-07-29T12:26:27.398Z,29.70
2022-07-29T12:31:44.102Z,29.60
2022-07-29T12:36:47.125Z,29.74
2022-07-29T12:42:03.897Z,30.01
2022-07-29T12:47:06.137Z,30.24
2022-07-29T12:52:31.263Z,30.37
2022-07-29T12:57:46.389Z,30.75
2022-07-29T13:02:55.783Z,30.91
2022-07-29T13:08:20.061Z,30.47
2022-07-29T13:13:24.343Z,30.20
2022-07-29T13:18:38.635Z,30.32
2022-07-29T13:23:40.997Z,30.45
2022-07-29T13:28:44.062Z,30.36
2022-07-29T13:33:45.811Z,30.00
2022-07-29T13:39:02.947Z,30.35
2022-07-29T13:44:04.657Z,30.65
2022-07-29T13:49:06.100Z,30.72
2022-07-29T13:54:10.596Z,30.66
2022-07-29T13:59:12.172Z,30.56
2022-07-29T14:04:13.536Z,30.50
2022-07-29T14:09:15.308Z,30.85
2022-07-29T14:14:16.809Z,30.97
2022-07-29T14:19:18.134Z,31.03
2022-07-29T14:24:21.542Z,31.25
2022-07-29T14:29:37.391Z,31.11
2022-07-29T14:34:40.366Z,30.90
2022-07-29T14:39:43.333Z,30.48
2022-07-29T14:44:45.444Z,30.20
2022-07-29T14:49:48.348Z,30.24
2022-07-29T14:54:49.611Z,30.40
2022-07-29T14:59:51.206Z,30.00
2022-07-29T15:04:52.984Z,29.76
2022-07-29T15:09:59.360Z,29.89
2022-07-29T15:15:01.113Z,29.93
2022-07-29T15:20:05.758Z,29.80
2022-07-29T15:25:07.629Z,29.23
2022-07-29T15:30:09.922Z,28.76
2022-07-29T15:35:12.717Z,28.42
2022-07-29T15:40:17.256Z,28.22
2022-07-29T15:45:18.759Z,28.05
2022-07-29T15:50:20.292Z,27.90
2022-07-29T15:55:21.764Z,27.70
2022-07-29T16:00:24.459Z,27.42
2022-07-29T16:05:26.139Z,27.18
2022-07-29T16:10:28.828Z,26.93
2022-07-29T16:15:30.218Z,26.72
2022-07-29T16:20:31.666Z,26.52
2022-07-29T16:26:01.194Z,26.34
2022-07-29T16:31:03.475Z,26.15
2022-07-29T16:36:06.373Z,25.96
2022-07-29T16:41:08.356Z,25.79
2022-07-29T16:46:14.686Z,25.66
2022-07-29T16:51:20.207Z,25.39
2022-07-29T16:56:21.564Z,25.06
2022-07-29T17:01:23.594Z,24.75
2022-07-29T17:06:25.012Z,24.37
2022-07-29T17:11:53.222Z,24.15
2022-07-29T17:16:51.701Z,24.00
2022-07-29T17:22:19.684Z,23.85
2022-07-29T17:27:24.861Z,23.71
2022-07-29T17:32:26.232Z,23.59
2022-07-29T17:37:28.626Z,23.50
2022-07-29T17:42:29.955Z,23.30
2022-07-29T17:47:31.561Z,22.84
2022-07-29T17:52:33.053Z,22.35
2022-07-29T17:57:34.319Z,21.57
2022-07-29T18:02:39.942Z,20.90
2022-07-29T18:07:42.059Z,20.53
2022-07-29T18:12:43.276Z,20.37
2022-07-29T18:17:56.943Z,20.30
2022-07-29T18:23:00.191Z,20.29
2022-07-29T18:28:01.540Z,20.30
2022-07-29T18:33:20.786Z,20.34
2022-07-29T18:38:24.403Z,20.43
2022-07-29T18:43:25.938Z,20.53
2022-07-29T18:48:32.987Z,20.60
2022-07-29T18:53:35.956Z,20.62
2022-07-29T18:58:38.992Z,20.62
2022-07-29T19:03:40.664Z,20.65
2022-07-29T19:08:46.636Z,20.66
2022-07-29T19:14:08.205Z,20.64
2022-07-29T19:19:19.645Z,20.62
2022-07-29T19:24:20.937Z,20.63
2022-07-29T19:29:24.133Z,20.56
2022-07-29T19:34:29.101Z,20.38
2022-07-29T19:39:35.338Z,20.29
2022-07-29T19:44:37.101Z,20.18
2022-07-29T19:49:39.808Z,20.10
2022-07-29T19:54:41.158Z,20.01
2022-07-29T19:59:42.450Z,19.88
2022-07-29T20:04:45.640Z,19.78
2022-07-29T20:09:47.081Z,19.68
2022-07-29T20:14:49.567Z,19.63
2022-07-29T20:19:52.402Z,19.55
2022-07-29T20:25:07.201Z,19.50
2022-07-29T20:30:15.719Z,19.48
2022-07-29T20:35:21.133Z,19.44
2022-07-29T20:40:46.187Z,19.39
2022-07-29T20:45:55.082Z,19.37
2022-07-29T20:50:56.402Z,19.33
2022-07-29T20:55:57.730Z,19.29
2022-07-29T21:01:00.650Z,19.27
2022-07-29T21:06:03.980Z,19.28
2022-07-29T21:11:05.336Z,19.30
2022-07-29T21:16:12.665Z,19.32
2022-07-29T21:21:16.441Z,19.34
2022-07-29T21:26:18.001Z,19.35
2022-07-29T21:31:19.301Z,19.33
2022-07-29T21:36:47.115Z,19.31
2022-07-29T21:41:43.306Z,19.31
2022-07-29T21:46:44.943Z,19.31
2022-07-29T21:51:46.252Z,19.30
2022-07-29T21:56:51.096Z,19.29
2022-07-29T22:01:52.857Z,19.27
2022-07-29T22:06:59.078Z,19.24
2022-07-29T22:12:02.222Z,19.22
2022-07-29T22:17:03.798Z,19.20
2022-07-29T22:22:05.665Z,19.20
2022-07-29T22:27:07.169Z,19.19
2022-07-29T22:32:09.966Z,19.13
2022-07-29T22:37:12.368Z,19.02
2022-07-29T22:42:13.816Z,18.91
2022-07-29T22:47:39.794Z,18.83
2022-07-29T22:52:49.452Z,18.80
2022-07-29T22:57:50.776Z,18.76
2022-07-29T23:02:52.660Z,18.73
2022-07-29T23:07:54.203Z,18.69
2022-07-29T23:12:55.569Z,18.64
2022-07-29T23:17:58.207Z,18.58
2022-07-29T23:23:06.418Z,18.46
2022-07-29T23:28:08.485Z,18.35
2022-07-29T23:33:14.934Z,18.27
2022-07-29T23:38:16.469Z,18.23
2022-07-29T23:43:17.751Z,18.22
2022-07-29T23:48:20.257Z,18.22
2022-07-29T23:53:35.192Z,18.23
2022-07-29T23:58:48.901Z,18.26
